Time;durP1;ratioP1;P1;durP2;ratioP2;P2;SDS_P1;SDS_P2;PMS_P1;PMS_P2;Temp;Humidity;BMP_temperature;BMP_pressure;BME280_temperature;BME280_humidity;BME280_pressure;Samples;Min_cycle;Max_cycle;Signal;HPM_P1;HPM_P2
2022/09/04 00:03:24;;;;;;;26.02;16.45;;;;;;;14.94;100.00;98069.19;10462307;28;20082;-62
2022/09/04 00:08:56;;;;;;;29.50;17.38;;;;;;;15.02;100.00;98073.44;10350784;28;20451;-62
2022/09/04 00:14:08;;;;;;;28.58;16.55;;;;;;;15.10;100.00;98069.84;10461868;28;20063;-62
2022/09/04 00:19:39;;;;;;;25.30;16.00;;;;;;;15.14;100.00;98076.78;10461972;28;20067;-62
2022/09/04 00:24:43;;;;;;;24.10;15.60;;;;;;;15.20;100.00;98082.78;10461614;28;20072;-62
2022/09/04 00:29:48;;;;;;;22.40;15.38;;;;;;;15.20;100.00;98089.72;10462101;28;20068;-62
2022/09/04 00:35:03;;;;;;;23.85;15.10;;;;;;;15.27;100.00;98096.59;10460314;28;20075;-62
2022/09/04 00:40:05;;;;;;;24.05;15.65;;;;;;;15.17;100.00;98106.34;10462340;28;20494;-61
2022/09/04 00:45:26;;;;;;;21.33;15.57;;;;;;;15.15;100.00;98102.88;10464303;28;20498;-62
2022/09/04 00:50:45;;;;;;;26.25;13.27;;;;;;;15.03;100.00;98113.50;10464209;28;20561;-62
2022/09/04 00:56:14;;;;;;;21.57;12.63;;;;;;;14.89;100.00;98111.06;10463948;28;20070;-62
2022/09/04 01:01:20;;;;;;;17.83;12.73;;;;;;;14.70;100.00;98101.69;10464068;28;20064;-61
2022/09/04 01:06:54;;;;;;;20.00;12.30;;;;;;;14.62;100.00;98096.56;10463513;28;20028;-61
2022/09/04 01:12:08;;;;;;;16.58;11.75;;;;;;;14.74;100.00;98093.84;10463145;28;20067;-62
2022/09/04 01:17:28;;;;;;;17.80;12.32;;;;;;;14.83;100.00;98085.88;10463522;28;20068;-62
2022/09/04 01:23:04;;;;;;;15.40;10.85;;;;;;;14.89;100.00;98084.06;10462839;28;20074;-62
2022/09/04 01:28:12;;;;;;;18.08;10.98;;;;;;;14.87;100.00;98085.84;10462830;28;20079;-62
2022/09/04 01:33:20;;;;;;;16.40;11.68;;;;;;;14.73;100.00;98081.66;10462118;28;20522;-62
2022/09/04 01:38:49;;;;;;;19.13;12.98;;;;;;;14.60;100.00;98093.97;10463162;28;20035;-62
2022/09/04 01:43:49;;;;;;;18.03;11.77;;;;;;;14.51;100.00;98064.50;10458564;28;20067;-62
2022/09/04 01:49:19;;;;;;;14.65;10.95;;;;;;;14.58;100.00;98079.19;10457927;28;20079;-62
2022/09/04 01:54:43;;;;;;;19.52;11.27;;;;;;;14.65;100.00;98083.47;10458300;28;20059;-62
2022/09/04 02:00:24;;;;;;;21.38;11.80;;;;;;;14.62;100.00;98079.16;10457725;28;20063;-62
2022/09/04 02:05:23;;;;;;;18.15;11.48;;;;;;;14.52;100.00;98087.09;10452520;28;20539;-62
2022/09/04 02:10:42;;;;;;;;;;;;;;;14.62;100.00;98075.69;10458265;28;20032;-61
2022/09/04 02:15:59;;;;;;;20.58;10.45;;;;;;;14.63;100.00;98080.84;10457729;28;19959;-61
2022/09/04 02:21:06;;;;;;;15.75;10.57;;;;;;;14.57;100.00;98080.94;10457536;28;20495;-61
2022/09/04 02:26:19;;;;;;;17.70;10.52;;;;;;;14.60;100.00;98080.91;10456977;28;20074;-61
2022/09/04 02:31:22;;;;;;;16.45;10.57;;;;;;;14.70;100.00;98079.06;10457346;28;20075;-61
2022/09/04 02:36:48;;;;;;;15.23;10.63;;;;;;;14.66;100.00;98058.19;10456634;28;20071;-61
2022/09/04 02:42:09;;;;;;;12.93;10.05;;;;;;;14.81;100.00;98079.81;10456484;28;20079;-62
2022/09/04 02:47:30;;;;;;;18.88;10.15;;;;;;;14.85;99.84;98072.81;10456379;28;20067;-61
2022/09/04 02:52:47;;;;;;;18.27;10.63;;;;;;;14.91;100.00;98066.63;10456387;28;20154;-61
2022/09/04 02:58:15;;;;;;;19.38;12.15;;;;;;;14.97;100.00;98063.94;10462013;28;20059;-62
2022/09/04 03:03:24;;;;;;;16.50;10.18;;;;;;;14.78;99.40;98063.28;10462441;28;20076;-62
2022/09/04 03:08:38;;;;;;;16.70;9.93;;;;;;;14.41;99.89;98067.19;10465190;28;20059;-61
2022/09/04 03:13:52;;;;;;;14.85;10.77;;;;;;;14.25;100.00;98072.63;10464345;28;20063;-61
2022/09/04 03:19:09;;;;;;;17.15;10.18;;;;;;;14.16;100.00;98068.34;10464498;28;20115;-62
2022/09/04 03:24:17;;;;;;;14.25;9.70;;;;;;;14.20;100.00;98101.38;10463955;28;20517;-61
2022/09/04 03:29:32;;;;;;;16.88;10.73;;;;;;;14.22;100.00;98096.13;10464081;28;20474;-61
2022/09/04 03:34:46;;;;;;;17.80;10.98;;;;;;;14.29;100.00;98103.00;10463202;28;20059;-61
2022/09/04 03:39:53;;;;;;;16.30;11.07;;;;;;;14.37;100.00;98098.59;10463858;28;20522;-61
2022/09/04 03:45:05;;;;;;;17.15;10.57;;;;;;;14.47;100.00;98096.72;10466905;28;20063;-61
2022/09/04 03:50:31;;;;;;;16.90;10.15;;;;;;;14.43;99.38;98097.63;10466669;28;20047;-61
2022/09/04 03:55:39;;;;;;;17.35;10.38;;;;;;;14.47;99.57;98101.94;10465982;28;20056;-61
2022/09/04 04:01:12;;;;;;;15.73;10.18;;;;;;;14.53;99.94;98101.91;10466451;28;20071;-62
2022/09/04 04:06:22;;;;;;;19.10;10.38;;;;;;;14.67;99.50;98109.56;10465735;28;20460;-61
2022/09/04 04:11:44;;;;;;;17.95;11.10;;;;;;;14.72;99.16;98111.28;10465795;28;20120;-61
2022/09/04 04:16:58;;;;;;;17.55;11.32;;;;;;;14.75;99.21;98119.06;10465528;28;20060;-61
2022/09/04 04:22:12;;;;;;;20.42;13.35;;;;;;;14.73;99.80;98128.69;10463682;28;20067;-61
2022/09/04 04:27:35;;;;;;;22.98;13.57;;;;;;;14.81;99.84;98152.09;10465028;28;20067;-61
2022/09/04 04:33:08;;;;;;;23.50;12.38;;;;;;;14.82;100.00;98154.69;10465064;28;20051;-61
2022/09/04 04:38:17;;;;;;;17.70;10.75;;;;;;;14.63;100.00;98169.66;10462998;28;20395;-61
2022/09/04 04:43:30;;;;;;;20.10;11.20;;;;;;;14.52;100.00;98176.78;10461244;28;20063;-61
2022/09/04 04:49:06;;;;;;;17.13;11.57;;;;;;;14.36;100.00;98186.50;10456968;28;20534;-61
2022/09/04 04:54:34;;;;;;;18.52;11.50;;;;;;;14.40;100.00;98198.66;10457131;28;20078;-61
2022/09/04 04:59:43;;;;;;;18.25;11.80;;;;;;;14.50;100.00;98188.09;10458835;28;20503;-61
2022/09/04 05:05:04;;;;;;;20.05;10.68;;;;;;;14.73;100.00;98180.06;10460625;28;20055;-61
2022/09/04 05:10:13;;;;;;;17.10;11.55;;;;;;;14.90;100.00;98182.50;10460630;28;20075;-61
2022/09/04 05:15:19;;;;;;;20.48;12.05;;;;;;;15.08;99.78;98187.47;10459898;28;20517;-61
2022/09/04 05:20:28;;;;;;;16.63;12.27;;;;;;;15.14;99.85;98184.81;10459034;28;20063;-61
2022/09/04 05:25:50;;;;;;;21.98;14.50;;;;;;;15.23;99.70;98176.00;10459728;28;20122;-61
2022/09/04 05:31:06;;;;;;;20.95;13.95;;;;;;;15.38;99.89;98182.75;10459269;28;20460;-61
2022/09/04 05:36:13;;;;;;;22.92;14.00;;;;;;;15.49;98.83;98182.63;10459070;28;20079;-61
2022/09/04 05:41:37;;;;;;;24.77;14.93;;;;;;;15.44;98.41;98186.16;10458902;28;20071;-61
2022/09/04 05:46:42;;;;;;;21.58;15.13;;;;;;;15.41;98.66;98185.31;10459094;28;20067;-61
2022/09/04 05:52:15;;;;;;;24.83;16.10;;;;;;;15.50;98.63;98181.72;10458760;28;20071;-61
2022/09/04 05:57:39;;;;;;;22.10;15.15;;;;;;;15.56;98.17;98179.88;10458319;28;20071;-61
2022/09/04 06:02:57;;;;;;;21.08;13.90;;;;;;;15.67;97.54;98191.06;10453479;28;20079;-61
2022/09/04 06:07:59;;;;;;;21.83;14.60;;;;;;;15.72;96.85;98200.63;10456875;28;20553;-61
2022/09/04 06:13:13;;;;;;;22.50;15.65;;;;;;;15.66;97.15;98186.72;10432525;28;20459;-61
2022/09/04 06:18:37;;;;;;;23.60;15.60;;;;;;;15.66;96.90;98172.78;10413720;28;20079;-61
2022/09/04 06:23:58;;;;;;;22.73;16.10;;;;;;;15.59;97.10;98168.50;10457348;28;20064;-61
2022/09/04 06:29:29;;;;;;;22.90;14.80;;;;;;;15.54;97.48;98171.19;10457067;28;20064;-61
2022/09/04 06:34:59;;;;;;;20.70;14.43;;;;;;;15.33;97.92;98174.13;10457879;28;20596;-61
2022/09/04 06:40:24;;;;;;;20.25;14.57;;;;;;;15.46;98.16;98178.31;10456395;28;20067;-61
2022/09/04 06:45:34;;;;;;;25.30;14.88;;;;;;;15.65;97.49;98174.53;10459921;28;20078;-61
2022/09/04 06:51:00;;;;;;;19.02;14.07;;;;;;;15.66;97.27;98164.91;10460319;28;20099;-61
2022/09/04 06:56:19;;;;;;;20.42;16.10;;;;;;;15.79;96.75;98163.03;10460505;28;20080;-61
2022/09/04 07:01:25;;;;;;;19.60;15.55;;;;;;;15.87;96.47;98175.09;10459264;28;20091;-61
2022/09/04 07:06:42;;;;;;;19.73;14.90;;;;;;;15.82;96.21;98182.16;10460049;28;20072;-61
2022/09/04 07:11:50;;;;;;;21.33;14.48;;;;;;;15.93;96.17;98182.00;10459761;28;20055;-61
2022/09/04 07:17:10;;;;;;;21.85;14.63;;;;;;;16.18;94.91;98176.34;10459840;28;20064;-61
2022/09/04 07:22:33;;;;;;;22.55;14.75;;;;;;;16.26;94.49;98182.34;10459219;28;20493;-61
2022/09/04 07:27:41;;;;;;;22.42;14.38;;;;;;;16.50;93.73;98179.28;10460253;28;20067;-61
2022/09/04 07:32:55;;;;;;;17.85;14.20;;;;;;;16.70;92.33;98168.44;10457199;28;20083;-61
2022/09/04 07:38:12;;;;;;;17.48;13.60;;;;;;;17.31;90.65;98192.59;10459295;28;20067;-61
2022/09/04 07:43:14;;;;;;;17.15;13.27;;;;;;;17.71;88.44;98181.22;10458915;28;20063;-61
2022/09/04 07:48:29;;;;;;;13.65;11.07;;;;;;;18.14;86.58;98190.72;10463218;28;20088;-61
2022/09/04 07:53:33;;;;;;;12.82;9.68;;;;;;;18.52;83.60;98180.16;10462855;28;20074;-61
2022/09/04 07:58:36;;;;;;;12.25;9.85;;;;;;;18.31;84.08;98202.59;10462445;28;20055;-61
2022/09/04 08:03:40;;;;;;;11.27;9.43;;;;;;;18.81;83.36;98203.09;10462865;28;20068;-61
2022/09/04 08:08:57;;;;;;;11.88;8.95;;;;;;;19.13;80.79;98203.94;10462324;28;20059;-61
2022/09/04 08:14:28;;;;;;;14.63;9.57;;;;;;;18.76;79.32;98216.34;10462792;28;20060;-61
2022/09/04 08:19:42;;;;;;;10.52;9.00;;;;;;;18.45;81.01;98223.25;10462849;28;20064;-61
2022/09/04 08:24:56;;;;;;;10.48;8.70;;;;;;;18.53;82.29;98213.44;10461847;28;20060;-61
2022/09/04 08:30:07;;;;;;;12.52;8.55;;;;;;;18.63;82.31;98206.16;10461463;28;20071;-61
2022/09/04 08:35:12;;;;;;;11.63;9.68;;;;;;;18.67;82.01;98210.44;10461292;28;20451;-61
2022/09/04 08:40:24;;;;;;;11.48;9.48;;;;;;;18.85;83.16;98203.84;10461405;28;20060;-61
2022/09/04 08:45:42;;;;;;;10.52;8.45;;;;;;;18.92;80.89;98210.66;10461034;28;20478;-61
2022/09/04 08:51:15;;;;;;;13.00;9.10;;;;;;;18.73;81.04;98194.53;10460879;28;20396;-61
2022/09/04 08:56:25;;;;;;;11.07;8.43;;;;;;;18.80;81.46;98168.00;10460841;28;20059;-61
2022/09/04 09:02:09;;;;;;;11.02;8.68;;;;;;;19.14;81.44;98187.28;10459871;28;20071;-61
2022/09/04 09:07:32;;;;;;;10.13;7.70;;;;;;;19.36;81.35;98171.72;10460497;28;20059;-61
2022/09/04 09:12:43;;;;;;;12.27;10.18;;;;;;;19.57;81.12;98168.44;10459822;28;20059;-61
2022/09/04 09:18:01;;;;;;;10.20;9.02;;;;;;;19.60;79.75;98176.28;10460441;28;20060;-61
2022/09/04 09:23:44;;;;;;;10.80;8.10;;;;;;;19.53;78.39;98156.25;10459396;28;20593;-61
2022/09/04 09:29:05;;;;;;;9.82;8.00;;;;;;;19.74;77.84;98162.66;10403904;28;20071;-61
2022/09/04 09:34:22;;;;;;;7.70;5.70;;;;;;;20.07;77.10;98163.38;10459344;28;20479;-61
2022/09/04 09:39:21;;;;;;;8.45;6.53;;;;;;;20.49;72.64;98167.25;10458986;28;20078;-61
2022/09/04 09:44:37;;;;;;;5.28;3.70;;;;;;;20.64;67.50;98161.47;10458441;28;20024;-61
2022/09/04 09:49:54;;;;;;;8.65;5.15;;;;;;;21.20;67.94;98136.56;10458467;28;20130;-61
2022/09/04 09:55:17;;;;;;;7.43;5.72;;;;;;;21.66;64.01;98139.22;10457415;28;20068;-61
2022/09/04 10:00:20;;;;;;;6.18;4.72;;;;;;;21.47;61.16;98087.13;10458727;28;20071;-61
2022/09/04 10:05:28;;;;;;;5.70;4.10;;;;;;;21.73;60.57;98128.38;10457089;28;20064;-61
2022/09/04 10:10:46;;;;;;;;;;;;;;;21.83;59.46;98120.03;10458765;28;20060;-61
2022/09/04 10:16:09;;;;;;;5.22;4.57;;;;;;;21.92;60.72;98117.91;10457606;28;19962;-61
2022/09/04 10:21:24;;;;;;;5.22;4.20;;;;;;;21.68;59.65;98129.47;10456984;28;20059;-61
2022/09/04 10:26:42;;;;;;;5.35;4.25;;;;;;;21.88;59.73;98124.25;10455858;28;20079;-61
2022/09/04 10:31:46;;;;;;;5.00;4.07;;;;;;;21.75;61.24;98130.94;10427048;28;20059;-61
2022/09/04 10:37:04;;;;;;;6.65;4.57;;;;;;;21.84;61.17;98116.50;10427218;28;20071;-61
2022/09/04 10:42:12;;;;;;;5.95;4.32;;;;;;;21.95;61.02;98115.13;10456714;28;20078;-61
2022/09/04 10:47:20;;;;;;;5.60;4.28;;;;;;;22.04;59.37;98094.56;10457525;28;20059;-61
2022/09/04 10:52:59;;;;;;;5.70;4.17;;;;;;;22.28;59.48;98112.03;10425210;28;20086;-61
2022/09/04 10:58:04;;;;;;;;;;;;;;;22.23;60.35;98113.16;10457154;28;20471;-61
2022/09/04 11:03:45;;;;;;;6.47;3.75;;;;;;;22.70;57.88;98105.81;10456103;28;19959;-61
2022/09/04 11:09:18;;;;;;;5.65;4.30;;;;;;;23.09;58.25;98099.66;10435955;28;20499;-61
2022/09/04 11:14:30;;;;;;;4.13;3.72;;;;;;;23.33;55.50;98097.66;10456224;28;20059;-61
2022/09/04 11:20:20;;;;;;;4.10;3.70;;;;;;;23.16;55.32;98094.91;10463847;28;20063;-61
2022/09/04 11:25:50;;;;;;;;;;;;;;;23.05;55.06;98091.94;10429935;28;20072;-61
2022/09/04 11:31:19;;;;;;;4.97;4.38;;;;;;;23.07;55.07;98088.28;10464347;28;19962;-61
2022/09/04 11:36:21;;;;;;;7.95;4.07;;;;;;;23.23;56.14;98086.63;10462630;28;20591;-61
2022/09/04 11:41:57;;;;;;;4.40;4.00;;;;;;;23.35;55.96;98092.25;10464831;28;20481;-61
2022/09/04 11:47:15;;;;;;;5.28;3.60;;;;;;;22.95;56.82;98096.78;10467465;28;20028;-61
2022/09/04 11:52:18;;;;;;;5.03;4.28;;;;;;;22.85;58.25;98098.13;10465812;28;20055;-61
2022/09/04 11:57:25;;;;;;;4.20;3.80;;;;;;;22.97;57.21;98084.31;10466094;28;20044;-61
2022/09/04 12:02:46;;;;;;;5.63;3.75;;;;;;;23.17;55.04;98080.78;10465910;28;20063;-61
2022/09/04 12:08:34;;;;;;;4.43;4.03;;;;;;;23.19;54.28;98085.06;10466642;28;20063;-61
2022/09/04 12:13:46;;;;;;;4.53;3.75;;;;;;;23.11;54.76;98087.19;10439149;28;20074;-61
2022/09/04 12:19:04;;;;;;;6.55;4.72;;;;;;;23.29;54.70;98081.97;10465944;28;20095;-61
2022/09/04 12:24:25;;;;;;;6.55;4.63;;;;;;;23.51;54.49;98084.47;10464795;28;20086;-61
2022/09/04 12:29:52;;;;;;;4.03;3.55;;;;;;;23.64;53.30;98085.63;10465154;28;20397;-61
2022/09/04 12:35:09;;;;;;;4.28;3.28;;;;;;;23.55;52.34;98086.91;10464909;28;20056;-61
2022/09/04 12:40:43;;;;;;;17.00;12.55;;;;;;;23.49;53.08;98092.53;10463987;28;20060;-61
2022/09/04 12:46:05;;;;;;;16.75;11.60;;;;;;;23.49;51.60;98089.88;10458177;28;20463;-61
2022/09/04 12:51:22;;;;;;;5.88;4.47;;;;;;;23.48;52.92;98088.13;10460189;28;20075;-61
2022/09/04 12:56:44;;;;;;;4.65;3.83;;;;;;;23.82;53.13;98081.22;10460086;28;20067;-61
2022/09/04 13:01:45;;;;;;;4.97;3.83;;;;;;;23.80;51.60;98075.13;10460446;28;20060;-61
2022/09/04 13:07:03;;;;;;;7.72;6.78;;;;;;;23.66;53.15;98093.50;10460647;28;20059;-61
2022/09/04 13:12:12;;;;;;;6.03;4.85;;;;;;;23.34;53.87;98083.47;10460013;28;20064;-61
2022/09/04 13:17:42;;;;;;;5.13;3.83;;;;;;;23.19;54.24;98090.34;10459921;28;20056;-61
2022/09/04 13:22:50;;;;;;;6.28;4.82;;;;;;;23.13;55.10;98087.13;10459921;28;20322;-61
2022/09/04 13:27:58;;;;;;;3.97;3.23;;;;;;;23.22;54.56;98069.03;10452994;28;20068;-62
2022/09/04 13:33:15;;;;;;;4.87;3.97;;;;;;;23.11;53.98;98067.81;10417495;28;20055;-61
2022/09/04 13:38:45;;;;;;;4.40;3.47;;;;;;;23.20;54.71;98076.19;10442333;28;20074;-62
2022/09/04 13:43:44;;;;;;;5.00;3.53;;;;;;;23.00;55.75;98089.50;10458493;28;20063;-61
2022/09/04 13:48:58;;;;;;;4.93;4.00;;;;;;;22.76;57.36;98092.34;10458315;28;20051;-62
2022/09/04 13:54:09;;;;;;;5.18;3.75;;;;;;;22.69;57.55;98096.13;10457836;28;20063;-61
2022/09/04 13:59:15;;;;;;;5.97;3.80;;;;;;;22.84;57.45;98104.38;10458225;28;20070;-61
2022/09/04 14:04:27;;;;;;;5.13;3.20;;;;;;;22.68;57.51;98075.06;10457743;28;20071;-62
2022/09/04 14:09:30;;;;;;;7.88;5.78;;;;;;;22.83;57.59;98070.88;10457635;28;20126;-62
2022/09/04 14:15:06;;;;;;;4.28;3.80;;;;;;;22.76;57.34;98102.03;10457808;28;20066;-62
2022/09/04 14:20:13;;;;;;;5.38;3.72;;;;;;;22.90;57.29;98115.50;10415557;28;20072;-62
2022/09/04 14:25:18;;;;;;;4.38;3.55;;;;;;;22.80;57.52;98104.47;10415640;28;20068;-62
2022/09/04 14:30:21;;;;;;;5.70;3.92;;;;;;;22.46;57.25;98093.63;10415630;28;20060;-62
2022/09/04 14:35:34;;;;;;;7.28;3.25;;;;;;;22.18;58.69;98113.34;10416329;28;20068;-62
2022/09/04 14:40:37;;;;;;;8.73;4.07;;;;;;;21.76;60.66;98116.81;10456844;28;20475;-62
2022/09/04 14:45:49;;;;;;;5.45;4.22;;;;;;;21.48;62.10;98109.16;10459640;28;20082;-62
2022/09/04 14:50:53;;;;;;;5.63;4.65;;;;;;;21.44;62.11;98110.19;10460397;28;20048;-62
2022/09/04 14:56:10;;;;;;;4.72;4.00;;;;;;;21.17;62.85;98133.16;10458218;28;20060;-62
2022/09/04 15:01:18;;;;;;;12.13;7.78;;;;;;;21.09;62.84;98122.91;10456475;28;20098;-62
2022/09/04 15:06:34;;;;;;;5.57;4.33;;;;;;;20.79;63.35;98091.47;10457615;28;20561;-62
2022/09/04 15:11:34;;;;;;;6.15;3.95;;;;;;;21.01;63.80;98131.13;10426368;28;20075;-62
2022/09/04 15:16:45;;;;;;;4.43;3.67;;;;;;;20.78;63.99;98137.25;10447808;28;20063;-62
2022/09/04 15:21:48;;;;;;;3.72;3.40;;;;;;;20.98;63.93;98130.34;10459986;28;20060;-62
2022/09/04 15:27:04;;;;;;;6.13;3.85;;;;;;;20.96;64.36;98130.44;10459403;28;20131;-62
2022/09/04 15:32:08;;;;;;;4.72;3.63;;;;;;;20.75;65.43;98141.75;10426017;28;20055;-61
2022/09/04 15:37:10;;;;;;;4.93;3.15;;;;;;;20.80;65.53;98139.84;10435220;28;20060;-62
2022/09/04 15:42:11;;;;;;;5.13;3.83;;;;;;;21.00;65.55;98139.94;10437763;28;20056;-62
2022/09/04 15:47:22;;;;;;;5.07;3.45;;;;;;;20.99;65.41;98132.09;10414965;28;20063;-62
2022/09/04 15:52:22;;;;;;;4.22;3.55;;;;;;;20.97;65.13;98140.06;10428592;28;20072;-62
2022/09/04 15:57:34;;;;;;;4.03;3.20;;;;;;;20.87;65.81;98133.41;10456901;28;20075;-62
2022/09/04 16:02:41;;;;;;;4.80;3.78;;;;;;;20.66;66.28;98120.09;10455293;28;20079;-62
2022/09/04 16:07:50;;;;;;;3.72;3.38;;;;;;;20.77;66.43;98147.84;10462701;28;20494;-62
2022/09/04 16:12:51;;;;;;;6.22;3.90;;;;;;;20.63;67.42;98145.69;10461475;28;20890;-62
2022/09/04 16:17:53;;;;;;;4.60;3.25;;;;;;;20.46;67.98;98147.13;10446368;28;20490;-62
2022/09/04 16:23:02;;;;;;;5.38;3.90;;;;;;;20.20;68.64;98119.00;10461878;28;20068;-62
2022/09/04 16:28:11;;;;;;;5.05;3.92;;;;;;;20.38;68.89;98150.94;10434772;28;20072;-62
2022/09/04 16:33:29;;;;;;;6.10;4.07;;;;;;;20.25;69.93;98145.22;10422260;28;20506;-62
2022/09/04 16:38:46;;;;;;;10.30;6.55;;;;;;;20.00;70.86;98156.56;10456952;28;20305;-62
2022/09/04 16:44:17;;;;;;;7.05;3.80;;;;;;;19.75;72.30;98151.22;10461223;28;20083;-62
2022/09/04 16:49:28;;;;;;;6.53;3.90;;;;;;;19.62;72.59;98127.03;10428056;28;20129;-62
2022/09/04 16:54:30;;;;;;;6.90;4.07;;;;;;;19.52;73.25;98130.00;10426190;28;20056;-62
2022/09/04 16:59:41;;;;;;;5.88;4.18;;;;;;;19.36;73.84;98138.34;10419069;28;20052;-62
2022/09/04 17:04:54;;;;;;;5.38;4.30;;;;;;;19.36;74.29;98159.41;10451703;28;20067;-62
2022/09/04 17:10:17;;;;;;;4.35;3.42;;;;;;;19.40;74.20;98171.56;10460373;28;20569;-62
2022/09/04 17:15:39;;;;;;;10.25;3.63;;;;;;;19.35;74.86;98184.00;10459515;28;20467;-62
2022/09/04 17:20:50;;;;;;;4.97;3.70;;;;;;;19.39;74.91;98190.91;10450823;28;20072;-61
2022/09/04 17:26:10;;;;;;;5.38;3.63;;;;;;;19.32;75.31;98199.00;10459825;28;20060;-62
2022/09/04 17:31:22;;;;;;;7.95;3.63;;;;;;;19.19;75.31;98169.56;10459164;28;20078;-62
2022/09/04 17:36:32;;;;;;;5.95;3.65;;;;;;;19.32;75.57;98199.91;10458460;28;20539;-62
2022/09/04 17:41:59;;;;;;;5.10;3.30;;;;;;;19.18;76.31;98209.94;10461118;28;20062;-62
2022/09/04 17:47:20;;;;;;;4.28;3.28;;;;;;;19.21;75.87;98217.75;10462437;28;20071;-62
2022/09/04 17:52:25;;;;;;;5.38;3.30;;;;;;;19.23;75.92;98226.47;10460825;28;20075;-62
2022/09/04 17:57:52;;;;;;;4.05;3.03;;;;;;;19.22;75.97;98232.63;10425292;28;20480;-62
2022/09/04 18:02:57;;;;;;;4.43;3.47;;;;;;;19.24;75.84;98236.06;10419810;28;20075;-62
2022/09/04 18:08:10;;;;;;;3.97;3.05;;;;;;;19.29;76.00;98244.69;10420088;28;20060;-62
2022/09/04 18:13:30;;;;;;;4.88;3.20;;;;;;;19.26;76.05;98236.91;10443913;28;20050;-62
2022/09/04 18:18:45;;;;;;;4.25;2.92;;;;;;;18.91;76.68;98204.53;10461216;28;20067;-62
2022/09/04 18:23:56;;;;;;;6.15;3.33;;;;;;;19.21;76.47;98244.06;10461126;28;20455;-62
2022/09/04 18:29:25;;;;;;;4.70;3.15;;;;;;;19.26;76.59;98252.69;10460064;28;20051;-62
2022/09/04 18:34:24;;;;;;;3.50;3.08;;;;;;;19.32;76.45;98257.78;10458774;28;20117;-62
2022/09/04 18:39:30;;;;;;;3.45;3.10;;;;;;;19.14;76.27;98232.00;10460681;28;20058;-62
2022/09/04 18:44:38;;;;;;;4.53;3.35;;;;;;;19.28;76.63;98244.75;10453866;28;20060;-62
2022/09/04 18:49:37;;;;;;;5.05;3.28;;;;;;;19.43;77.24;98263.59;10455778;28;20083;-62
2022/09/04 18:54:40;;;;;;;4.00;3.40;;;;;;;19.33;76.98;98261.28;10457233;28;20166;-62
2022/09/04 18:59:44;;;;;;;3.55;3.00;;;;;;;19.17;77.03;98252.94;10456565;28;20067;-62
2022/09/04 19:04:50;;;;;;;4.22;3.28;;;;;;;19.08;77.04;98266.34;10455860;28;20063;-62
2022/09/04 19:09:55;;;;;;;5.65;2.95;;;;;;;19.01;77.19;98255.97;10457246;28;20067;-62
2022/09/04 19:14:57;;;;;;;4.93;3.42;;;;;;;19.00;77.77;98254.28;10453434;28;20059;-62
2022/09/04 19:20:07;;;;;;;4.50;3.20;;;;;;;18.93;77.79;98234.31;10455442;28;20070;-62
2022/09/04 19:25:16;;;;;;;4.22;3.20;;;;;;;18.97;76.72;98241.22;10456562;28;20861;-62
2022/09/04 19:30:20;;;;;;;3.63;3.05;;;;;;;19.09;75.99;98258.44;10456009;28;20059;-62
2022/09/04 19:35:31;;;;;;;6.15;3.30;;;;;;;19.14;75.31;98259.16;10454720;28;20056;-62
2022/09/04 19:40:43;;;;;;;4.03;3.30;;;;;;;19.21;75.02;98265.13;10461781;28;20491;-62
2022/09/04 19:45:57;;;;;;;4.82;3.25;;;;;;;19.27;75.76;98270.19;10459398;28;20064;-62
2022/09/04 19:51:01;;;;;;;4.40;3.45;;;;;;;19.28;76.71;98276.34;10463160;28;20079;-62
2022/09/04 19:56:04;;;;;;;5.20;3.33;;;;;;;19.24;77.44;98272.91;10463216;28;20524;-62
2022/09/04 20:01:12;;;;;;;5.45;3.40;;;;;;;19.14;77.84;98274.94;10463232;28;20498;-62
2022/09/04 20:06:14;;;;;;;4.38;3.67;;;;;;;19.22;78.28;98288.72;10463343;28;20063;-62
2022/09/04 20:11:30;;;;;;;6.35;3.45;;;;;;;19.23;79.04;98284.34;10462508;28;20055;-62
2022/09/04 20:16:42;;;;;;;4.95;3.50;;;;;;;19.15;78.84;98279.28;10459427;28;20114;-62
2022/09/04 20:22:01;;;;;;;3.90;2.90;;;;;;;19.12;78.48;98281.16;10463050;28;20059;-62
2022/09/04 20:27:14;;;;;;;3.58;3.20;;;;;;;18.99;78.63;98276.22;10461930;28;20055;-62
2022/09/04 20:32:37;;;;;;;5.50;3.13;;;;;;;19.08;78.84;98297.91;10461731;28;20078;-62
2022/09/04 20:37:40;;;;;;;4.00;3.22;;;;;;;19.01;78.99;98298.06;10461783;28;20055;-62
2022/09/04 20:43:05;;;;;;;5.63;3.13;;;;;;;19.00;79.43;98298.97;10461222;28;20067;-62
2022/09/04 20:48:15;;;;;;;3.75;3.10;;;;;;;18.94;79.89;98296.50;10458537;28;20585;-62
2022/09/04 20:53:28;;;;;;;4.10;2.85;;;;;;;18.81;79.79;98288.06;10461271;28;20512;-62
2022/09/04 20:58:42;;;;;;;4.72;3.22;;;;;;;18.79;80.00;98297.78;10461206;28;20173;-62
2022/09/04 21:04:18;;;;;;;3.60;3.17;;;;;;;18.81;80.23;98290.72;10460352;28;20070;-62
2022/09/04 21:09:18;;;;;;;4.68;3.00;;;;;;;18.74;80.07;98293.53;10461158;28;20070;-62
2022/09/04 21:14:25;;;;;;;6.93;3.38;;;;;;;18.63;79.79;98288.50;10459904;28;20064;-62
2022/09/04 21:20:02;;;;;;;3.78;3.10;;;;;;;18.49;79.93;98283.59;10457512;28;20067;-62
2022/09/04 21:25:29;;;;;;;4.18;3.40;;;;;;;18.29;80.25;98267.44;10459744;28;20071;-62
2022/09/04 21:30:53;;;;;;;4.75;2.70;;;;;;;18.42;80.48;98284.63;10459490;28;20063;-62
2022/09/04 21:36:00;;;;;;;6.43;3.67;;;;;;;18.19;80.07;98277.31;10459498;28;20450;-62
2022/09/04 21:41:40;;;;;;;5.68;3.42;;;;;;;18.10;80.22;98282.75;10458948;28;20066;-62
2022/09/04 21:46:42;;;;;;;5.60;3.50;;;;;;;18.14;80.35;98280.03;10450829;28;20090;-62
2022/09/04 21:51:44;;;;;;;6.22;3.92;;;;;;;18.12;80.31;98279.19;10456036;28;20078;-62
2022/09/04 21:56:58;;;;;;;4.35;3.90;;;;;;;17.85;81.10;98287.72;10458250;28;20055;-62
2022/09/04 22:02:16;;;;;;;7.97;4.10;;;;;;;17.59;81.85;98291.72;10458197;28;20060;-62
2022/09/04 22:07:39;;;;;;;3.90;3.42;;;;;;;17.28;83.27;98301.94;10453750;28;20115;-62
2022/09/04 22:12:47;;;;;;;11.20;4.03;;;;;;;17.10;83.94;98303.19;10454608;28;20066;-62
2022/09/04 22:18:23;;;;;;;7.85;3.88;;;;;;;17.11;84.03;98307.53;10455616;28;20450;-62
2022/09/04 22:23:35;;;;;;;5.20;4.38;;;;;;;17.30;83.87;98308.03;10455072;28;20087;-62
2022/09/04 22:28:56;;;;;;;4.30;3.65;;;;;;;17.39;83.55;98307.00;10457199;28;20466;-62
2022/09/04 22:34:22;;;;;;;5.85;4.18;;;;;;;17.54;83.35;98304.06;10457489;28;20063;-62
2022/09/04 22:39:24;;;;;;;5.65;4.30;;;;;;;17.48;82.70;98298.94;10457344;28;20484;-62
2022/09/04 22:44:36;;;;;;;7.35;4.30;;;;;;;17.26;83.30;98298.50;10460337;28;20063;-62
2022/09/04 22:49:50;;;;;;;6.47;4.35;;;;;;;17.10;84.16;98297.94;10460333;28;20083;-62
2022/09/04 22:55:00;;;;;;;8.27;5.57;;;;;;;17.11;83.95;98294.41;10458000;28;20066;-62
2022/09/04 23:00:00;;;;;;;6.18;4.57;;;;;;;17.27;84.14;98305.47;10460305;28;20020;-62
2022/09/04 23:05:24;;;;;;;8.98;5.05;;;;;;;17.20;83.88;98289.00;10460409;28;20060;-62
2022/09/04 23:10:48;;;;;;;5.90;4.70;;;;;;;17.37;83.78;98316.66;10461071;28;20036;-62
2022/09/04 23:16:07;;;;;;;5.65;4.20;;;;;;;17.35;83.42;98321.91;10467755;28;20082;-62
2022/09/04 23:21:32;;;;;;;6.80;4.77;;;;;;;17.16;83.55;98315.31;10467786;28;20055;-62
2022/09/04 23:26:53;;;;;;;5.60;4.75;;;;;;;17.20;83.66;98309.97;10468343;28;20055;-62
2022/09/04 23:32:34;;;;;;;7.90;4.60;;;;;;;17.26;83.21;98312.50;10468947;28;20063;-62
2022/09/04 23:37:55;;;;;;;6.43;4.53;;;;;;;17.25;83.51;98307.25;10446700;28;20072;-62
2022/09/04 23:43:09;;;;;;;9.45;4.60;;;;;;;17.02;83.96;98310.31;10465444;28;20130;-62
2022/09/04 23:48:26;;;;;;;6.15;4.47;;;;;;;16.92;84.84;98310.47;10463220;28;20079;-62
2022/09/04 23:54:13;;;;;;;7.43;4.60;;;;;;;16.89;85.21;98315.78;10460896;28;20063;-62
2022/09/04 23:59:34;;;;;;;6.70;5.28;;;;;;;16.86;85.84;98310.59;10457914;28;20079;-62
